Time;durP1;ratioP1;P1;durP2;ratioP2;P2;SDS_P1;SDS_P2;PMS_P1;PMS_P2;Temp;Humidity;BMP_temperature;BMP_pressure;BME280_temperature;BME280_humidity;BME280_pressure;Samples;Min_cycle;Max_cycle;Signal;HPM_P1;HPM_P2
2022/06/03 00:02:29;;;;;;;5.65;2.33;;;10.70;99.90;;;;;;6254680;22;20452;-96
2022/06/03 00:05:31;;;;;;;6.80;2.30;;;10.80;99.90;;;;;;6228279;22;20041;-96
2022/06/03 00:08:26;;;;;;;4.38;1.88;;;10.80;99.90;;;;;;6223244;22;20043;-96
2022/06/03 00:11:07;;;;;;;4.22;2.05;;;10.80;99.90;;;;;;6247916;22;20071;-96
2022/06/03 00:13:59;;;;;;;3.50;1.60;;;10.80;99.90;;;;;;6222995;22;20448;-96
2022/06/03 00:17:09;;;;;;;4.25;2.05;;;10.80;99.90;;;;;;6221608;22;20113;-96
2022/06/03 00:20:13;;;;;;;3.78;1.85;;;10.70;99.90;;;;;;6248273;22;20099;-96
2022/06/03 00:23:16;;;;;;;3.38;1.42;;;10.80;99.90;;;;;;6249055;22;20023;-95
2022/06/03 00:30:01;;;;;;;3.90;1.77;;;10.60;99.90;;;;;;6297252;22;20014;-96
2022/06/03 00:33:05;;;;;;;2.58;1.38;;;10.50;99.90;;;;;;6246565;22;20016;-96
2022/06/03 00:35:42;;;;;;;3.33;1.55;;;10.50;99.90;;;;;;6272247;22;20020;-92
2022/06/03 00:57:06;;;;;;;5.03;1.83;;;10.30;99.90;;;;;;6266754;22;20024;-92
2022/06/03 01:00:16;;;;;;;4.15;1.80;;;10.30;99.90;;;;;;6330763;22;20007;-92
2022/06/03 01:23:40;;;;;;;4.80;2.35;;;10.20;99.90;;;;;;6283468;22;20090;-92
2022/06/03 01:26:31;;;;;;;3.38;1.70;;;10.30;99.90;;;;;;6334981;22;20022;-96
2022/06/03 02:34:16;;;;;;;3.47;1.40;;;9.30;99.90;;;;;;6438863;22;20521;-94
2022/06/03 02:37:27;;;;;;;3.28;1.45;;;9.40;99.90;;;;;;6241959;22;20099;-92
2022/06/03 02:40:12;;;;;;;;;;;;;;;;;;;;;
2022/06/03 02:58:28;;;;;;;2.13;0.80;;;9.20;99.90;;;;;;6231872;22;20024;-93
2022/06/03 03:07:59;;;;;;;2.00;0.98;;;9.10;99.90;;;;;;6166974;23;20402;-95
2022/06/03 03:14:32;;;;;;;2.88;1.00;;;9.00;99.90;;;;;;6175972;23;20023;-95
2022/06/03 04:10:53;;;;;;;1.98;0.75;;;9.00;99.90;;;;;;6256934;22;20032;-91
2022/06/03 04:55:48;;;;;;;6.32;2.35;;;10.00;99.90;;;;;;6400499;22;20021;-93
2022/06/03 04:58:20;;;;;;;5.22;2.22;;;10.00;99.90;;;;;;6348227;22;20014;-90
2022/06/03 05:01:07;;;;;;;4.97;2.28;;;10.20;99.90;;;;;;6348482;22;20014;-91
2022/06/03 05:04:04;;;;;;;5.50;2.45;;;10.20;99.90;;;;;;6348655;22;20021;-94
2022/06/03 05:15:59;;;;;;;5.88;2.58;;;11.30;99.90;;;;;;6224610;22;20026;-96
2022/06/03 05:19:03;;;;;;;5.53;2.60;;;11.80;99.90;;;;;;6337242;22;20017;-95
2022/06/03 05:21:59;;;;;;;5.22;2.63;;;12.50;99.90;;;;;;6297258;22;20015;-96
2022/06/03 05:24:56;;;;;;;7.30;2.60;;;12.70;99.90;;;;;;6338651;22;20020;-96
2022/06/03 05:27:43;;;;;;;5.97;2.88;;;12.60;99.90;;;;;;6361706;22;20045;-96
2022/06/03 05:31:03;;;;;;;6.63;3.17;;;12.50;99.90;;;;;;6356201;22;20091;-96
2022/06/03 05:33:51;;;;;;;4.63;2.30;;;12.40;99.90;;;;;;6324562;22;20020;-95
2022/06/03 05:36:57;;;;;;;6.70;3.30;;;12.40;99.90;;;;;;6328280;22;20020;-94
2022/06/03 05:40:28;;;;;;;5.03;2.67;;;12.40;99.90;;;;;;6324805;22;20040;-92
2022/06/03 05:43:08;;;;;;;5.72;2.33;;;12.40;99.90;;;;;;6349579;22;20020;-92
2022/06/03 05:46:06;;;;;;;5.90;2.97;;;12.50;99.90;;;;;;6352081;22;20056;-90
2022/06/03 05:49:09;;;;;;;5.38;2.67;;;12.60;99.90;;;;;;6355519;22;20020;-93
2022/06/03 05:51:46;;;;;;;5.53;2.85;;;12.70;99.90;;;;;;6330200;22;20022;-95
2022/06/03 05:54:19;;;;;;;6.28;3.15;;;12.80;99.90;;;;;;6333293;22;20103;-94
2022/06/03 05:57:38;;;;;;;6.55;2.83;;;12.90;99.90;;;;;;6326672;22;20016;-94
2022/06/03 07:38:49;;;;;;;2.83;0.80;;;17.70;99.90;;;;;;6231371;22;20013;-93
2022/06/03 11:58:34;;;;;;;2.88;1.00;;;20.10;93.20;;;;;;6251361;22;20028;-92
2022/06/03 23:35:52;;;;;;;4.55;1.63;;;12.40;99.90;;;;;;6242229;22;20024;-94
2022/06/03 23:38:18;;;;;;;4.55;2.15;;;12.40;99.90;;;;;;6191393;22;20024;-94
2022/06/03 23:40:54;;;;;;;3.55;1.80;;;12.40;99.90;;;;;;6190784;23;20501;-95
2022/06/03 23:45:57;;;;;;;3.67;1.77;;;12.30;99.90;;;;;;6218783;22;20386;-95
